createdAt,value
2023-04-15T00:01:11.823Z,101050.41
2023-04-15T00:04:16.126Z,101053.91
2023-04-15T00:07:19.708Z,101051.34
2023-04-15T00:10:23.366Z,101052.28
2023-04-15T00:13:28.465Z,101054.84
2023-04-15T00:16:32.099Z,101052.19
2023-04-15T00:19:35.700Z,101042.63
2023-04-15T00:22:39.331Z,101046.91
2023-04-15T00:25:42.887Z,101046.91
2023-04-15T00:28:47.833Z,101038.25
2023-04-15T00:31:51.369Z,101046.00
2023-04-15T00:34:54.880Z,101036.50
2023-04-15T00:37:58.490Z,101040.75
2023-04-15T00:41:03.105Z,101036.41
2023-04-15T00:44:08.290Z,101038.13
2023-04-15T00:47:13.324Z,101040.78
2023-04-15T00:50:16.839Z,101044.25
2023-04-15T00:53:20.685Z,101039.84
2023-04-15T00:56:25.511Z,101038.09
2023-04-15T00:59:31.780Z,101028.56
2023-04-15T01:02:36.565Z,101026.00
2023-04-15T01:05:41.718Z,101021.59
2023-04-15T01:08:45.795Z,101013.81
2023-04-15T01:11:49.418Z,101013.81
2023-04-15T01:14:55.424Z,101007.69
2023-04-15T01:18:01.215Z,101010.28
2023-04-15T01:21:06.208Z,101011.25
2023-04-15T01:24:11.964Z,101016.44
2023-04-15T01:27:16.793Z,101004.31
2023-04-15T01:30:21.876Z,101004.22
2023-04-15T01:33:25.692Z,101009.44
2023-04-15T01:36:29.937Z,101005.09
2023-04-15T01:39:33.728Z,101007.66
2023-04-15T01:42:38.999Z,101016.31
2023-04-15T01:45:42.972Z,101012.84
2023-04-15T01:48:46.630Z,101011.00
2023-04-15T01:51:50.236Z,101009.31
2023-04-15T01:54:53.754Z,101010.13
2023-04-15T01:57:59.045Z,101006.63
2023-04-15T02:01:03.091Z,101000.63
2023-04-15T02:04:07.278Z,101000.66
2023-04-15T02:07:10.872Z,101004.03
2023-04-15T02:10:16.431Z,100995.38
2023-04-15T02:13:21.387Z,101004.03
2023-04-15T02:16:24.906Z,100998.00
2023-04-15T02:19:28.448Z,101002.28
2023-04-15T02:22:32.014Z,101000.59
2023-04-15T02:25:35.579Z,101007.50
2023-04-15T02:28:40.515Z,101004.00
2023-04-15T02:31:45.043Z,101003.09
2023-04-15T02:34:48.714Z,101007.50
2023-04-15T02:37:52.574Z,101011.81
2023-04-15T02:40:56.644Z,101004.88
2023-04-15T02:44:01.461Z,101004.88
2023-04-15T02:47:07.218Z,101005.75
2023-04-15T02:50:13.260Z,100999.63
2023-04-15T02:53:17.577Z,101006.59
2023-04-15T02:56:23.198Z,101008.28
2023-04-15T02:59:28.317Z,101007.44
2023-04-15T03:02:36.099Z,101014.38
2023-04-15T03:05:40.568Z,101004.78
2023-04-15T03:08:43.983Z,101005.66
2023-04-15T03:11:47.772Z,101005.66
2023-04-15T03:14:52.562Z,101007.34
2023-04-15T03:17:56.070Z,101004.69
2023-04-15T03:20:59.550Z,101000.34
2023-04-15T03:24:03.107Z,101000.34
2023-04-15T03:27:08.029Z,100993.38
2023-04-15T03:30:14.386Z,100991.69
2023-04-15T03:33:18.148Z,100992.50
2023-04-15T03:36:21.738Z,100993.38
2023-04-15T03:39:25.251Z,100994.25
2023-04-15T03:42:28.784Z,100996.00
2023-04-15T03:45:34.092Z,101000.28
2023-04-15T03:48:37.835Z,100998.56
2023-04-15T03:51:41.385Z,100990.75
2023-04-15T03:54:44.925Z,100994.19
2023-04-15T03:57:48.391Z,100997.63
2023-04-15T04:00:53.350Z,100993.31
2023-04-15T04:03:57.148Z,100987.22
2023-04-15T04:07:00.866Z,100995.00
2023-04-15T04:10:04.889Z,100991.53
2023-04-15T04:13:08.426Z,101003.63
2023-04-15T04:16:13.485Z,101001.88
2023-04-15T04:19:19.649Z,101009.72
2023-04-15T04:22:24.831Z,100998.38
2023-04-15T04:25:28.349Z,101001.94
2023-04-15T04:28:31.890Z,101004.53
2023-04-15T04:31:37.125Z,101006.19
2023-04-15T04:34:40.701Z,101006.25
2023-04-15T04:37:44.242Z,101012.34
2023-04-15T04:40:47.851Z,101011.41
2023-04-15T04:43:51.441Z,101012.28
2023-04-15T04:46:56.412Z,101005.31
2023-04-15T04:49:59.918Z,101009.72
2023-04-15T04:53:04.057Z,101005.38
2023-04-15T04:56:08.031Z,101011.41
2023-04-15T04:59:11.615Z,101009.69
2023-04-15T05:02:16.654Z,101022.69
2023-04-15T05:05:20.380Z,101018.31
2023-04-15T05:08:23.925Z,101019.22
2023-04-15T05:11:28.355Z,101030.44
2023-04-15T05:14:32.316Z,101020.84
2023-04-15T05:17:37.350Z,101020.84
2023-04-15T05:20:41.070Z,101023.53
2023-04-15T05:23:44.656Z,101017.38
2023-04-15T05:26:48.456Z,101028.69
2023-04-15T05:29:51.956Z,101036.41
2023-04-15T05:32:57.278Z,101026.06
2023-04-15T05:36:00.808Z,101030.38
2023-04-15T05:39:04.581Z,101033.78
2023-04-15T05:42:08.146Z,101033.75
2023-04-15T05:45:12.860Z,101039.84
2023-04-15T05:48:17.776Z,101033.81
2023-04-15T05:51:21.449Z,101035.41
2023-04-15T05:54:25.054Z,101038.09
2023-04-15T05:57:28.734Z,101035.47
2023-04-15T06:00:32.297Z,101035.41
2023-04-15T06:03:37.452Z,101039.75
2023-04-15T06:06:41.187Z,101045.75
2023-04-15T06:09:45.058Z,101037.84
2023-04-15T06:12:48.625Z,101040.44
2023-04-15T06:15:52.278Z,101048.28
2023-04-15T06:18:57.180Z,101052.59
2023-04-15T06:22:00.873Z,101052.56
2023-04-15T06:25:04.723Z,101052.47
2023-04-15T06:28:08.848Z,101064.69
2023-04-15T06:31:12.709Z,101055.97
2023-04-15T06:34:18.378Z,101072.41
2023-04-15T06:37:22.234Z,101070.72
2023-04-15T06:40:26.066Z,101070.69
2023-04-15T06:43:29.774Z,101075.84
2023-04-15T06:46:33.364Z,101074.91
2023-04-15T06:49:38.708Z,101071.41
2023-04-15T06:52:42.504Z,101080.09
2023-04-15T06:55:46.039Z,101078.34
2023-04-15T06:58:49.478Z,101080.91
2023-04-15T07:01:53.008Z,101082.59
2023-04-15T07:04:57.937Z,101079.13
2023-04-15T07:08:02.040Z,101077.38
2023-04-15T07:11:05.587Z,101077.22
2023-04-15T07:14:09.139Z,101075.53
2023-04-15T07:17:13.440Z,101077.25
2023-04-15T07:20:18.796Z,101077.22
2023-04-15T07:23:22.539Z,101072.88
2023-04-15T07:26:26.106Z,101077.16
2023-04-15T07:29:29.680Z,101078.03
2023-04-15T07:32:33.200Z,101084.06
2023-04-15T07:35:38.182Z,101088.38
2023-04-15T07:38:41.712Z,101087.53
2023-04-15T07:41:45.318Z,101094.41
2023-04-15T07:44:49.051Z,101091.78
2023-04-15T07:47:52.691Z,101092.59
2023-04-15T07:50:57.634Z,101089.19
2023-04-15T07:54:01.209Z,101098.59
2023-04-15T07:57:04.900Z,101095.09
2023-04-15T08:00:10.136Z,101090.66
2023-04-15T08:03:13.725Z,101099.41
2023-04-15T08:06:18.804Z,101093.28
2023-04-15T08:09:22.396Z,101101.16
2023-04-15T08:12:26.084Z,101096.66
2023-04-15T08:15:46.317Z,101097.53
2023-04-15T08:18:52.177Z,101095.78
2023-04-15T08:21:57.702Z,101095.75
2023-04-15T08:25:01.636Z,101107.75
2023-04-15T08:28:07.548Z,101105.25
2023-04-15T08:31:11.309Z,101108.66
2023-04-15T08:34:15.068Z,101108.59
2023-04-15T08:37:21.320Z,101114.69
2023-04-15T08:40:29.818Z,101116.41
2023-04-15T08:43:39.150Z,101108.53
2023-04-15T08:46:44.735Z,101105.84
2023-04-15T08:49:53.896Z,101104.16
2023-04-15T08:53:00.994Z,101099.75
2023-04-15T08:56:10.996Z,101105.00
2023-04-15T08:59:14.870Z,101108.47
2023-04-15T09:02:18.805Z,101104.94
2023-04-15T09:05:23.151Z,101114.41
2023-04-15T09:08:28.202Z,101114.47
2023-04-15T09:11:32.445Z,101122.22
2023-04-15T09:14:37.307Z,101123.91
2023-04-15T09:17:45.386Z,101122.03
2023-04-15T09:20:48.892Z,101125.44
2023-04-15T09:24:03.324Z,101126.31
2023-04-15T09:27:07.568Z,101126.28
2023-04-15T09:30:13.213Z,101132.34
2023-04-15T09:33:17.344Z,101147.97
2023-04-15T09:36:21.008Z,101127.94
2023-04-15T09:39:26.069Z,101144.34
2023-04-15T09:42:29.490Z,101149.53
2023-04-15T09:45:36.632Z,101148.63
2023-04-15T09:48:40.125Z,101154.50
2023-04-15T09:51:51.330Z,101157.09
2023-04-15T09:55:08.934Z,101152.69
2023-04-15T09:58:20.611Z,101152.03
2023-04-15T10:01:29.704Z,101160.53
2023-04-15T10:04:37.858Z,101151.97
2023-04-15T10:07:43.053Z,101164.91
2023-04-15T10:10:49.830Z,101158.81
2023-04-15T10:13:57.419Z,101163.97
2023-04-15T10:17:13.822Z,101155.44
2023-04-15T10:20:21.426Z,101162.19
2023-04-15T10:23:27.917Z,101165.69
2023-04-15T10:26:33.323Z,101168.28
2023-04-15T10:29:37.870Z,101166.66
2023-04-15T10:32:42.666Z,101179.69
2023-04-15T10:35:47.656Z,101173.66
2023-04-15T10:38:52.245Z,101171.88
2023-04-15T10:42:11.589Z,101175.41
2023-04-15T10:45:20.527Z,101173.72
2023-04-15T10:48:26.048Z,101175.53
2023-04-15T10:51:33.735Z,101177.88
2023-04-15T10:54:39.464Z,101179.56
2023-04-15T10:57:52.476Z,101176.13
2023-04-15T11:01:04.577Z,101181.38
2023-04-15T11:04:08.572Z,101182.97
2023-04-15T11:07:12.197Z,101185.44
2023-04-15T11:10:53.978Z,101183.75
2023-04-15T11:13:59.121Z,101190.63
2023-04-15T11:17:03.049Z,101199.44
2023-04-15T11:20:17.771Z,101194.72
2023-04-15T11:23:30.023Z,101191.56
2023-04-15T11:26:33.888Z,101197.53
2023-04-15T11:29:38.958Z,101199.38
2023-04-15T11:32:44.155Z,101202.72
2023-04-15T11:35:49.461Z,101205.31
2023-04-15T11:38:53.078Z,101214.13
2023-04-15T11:41:56.558Z,101215.78
2023-04-15T11:45:10.610Z,101216.50
2023-04-15T11:48:15.597Z,101223.28
2023-04-15T11:51:21.905Z,101225.13
2023-04-15T11:54:25.608Z,101223.38
2023-04-15T11:57:33.231Z,101226.69
2023-04-15T12:00:40.079Z,101235.38
2023-04-15T12:03:47.058Z,101243.19
2023-04-15T12:06:50.977Z,101242.38
2023-04-15T12:09:57.907Z,101244.81
2023-04-15T12:13:01.670Z,101244.81
2023-04-15T12:16:09.357Z,101247.34
2023-04-15T12:19:15.131Z,101251.59
2023-04-15T12:22:20.085Z,101261.09
2023-04-15T12:25:36.454Z,101257.28
2023-04-15T12:28:42.750Z,101264.22
2023-04-15T12:31:53.182Z,101260.63
2023-04-15T12:34:56.718Z,101258.97
2023-04-15T12:38:00.606Z,101267.53
2023-04-15T12:41:04.298Z,101275.28
2023-04-15T12:44:43.950Z,101290.69
2023-04-15T12:47:48.922Z,101281.16
2023-04-15T12:50:52.634Z,101281.88
2023-04-15T12:53:59.237Z,101280.78
2023-04-15T12:57:05.963Z,101288.44
2023-04-15T13:00:13.533Z,101283.06
2023-04-15T13:03:18.846Z,101289.97
2023-04-15T13:06:24.084Z,101284.41
2023-04-15T13:09:27.741Z,101277.50
2023-04-15T13:12:31.329Z,101280.44
2023-04-15T13:15:35.974Z,101270.47
2023-04-15T13:18:41.137Z,101267.78
2023-04-15T13:21:44.733Z,101268.78
2023-04-15T13:24:48.356Z,101259.59
2023-04-15T13:27:52.388Z,101260.91
2023-04-15T13:30:56.221Z,101268.34
2023-04-15T13:34:01.254Z,101261.94
2023-04-15T13:37:08.927Z,101266.94
2023-04-15T13:40:13.305Z,101274.72
2023-04-15T13:43:17.571Z,101271.91
2023-04-15T13:46:21.484Z,101270.16
2023-04-15T13:49:26.425Z,101270.38
2023-04-15T13:52:30.185Z,101269.84
2023-04-15T13:55:35.077Z,101269.00
2023-04-15T13:58:39.231Z,101281.72
2023-04-15T14:01:43.816Z,101293.31
2023-04-15T14:04:48.857Z,101280.31
2023-04-15T14:07:52.458Z,101285.41
2023-04-15T14:10:55.945Z,101276.34
2023-04-15T14:13:59.463Z,101291.84
2023-04-15T14:17:03.909Z,101289.28
2023-04-15T14:20:11.423Z,101291.72
2023-04-15T14:23:14.910Z,101287.75
2023-04-15T14:26:18.428Z,101286.97
2023-04-15T14:29:22.292Z,101286.63
2023-04-15T14:32:27.311Z,101289.66
2023-04-15T14:35:32.641Z,101295.22
2023-04-15T14:38:38.547Z,101294.91
2023-04-15T14:41:42.203Z,101291.50
2023-04-15T14:44:45.766Z,101300.97
2023-04-15T14:47:49.364Z,101315.19
2023-04-15T14:50:54.833Z,101318.81
2023-04-15T14:53:58.452Z,101314.06
2023-04-15T14:57:02.907Z,101321.66
2023-04-15T15:00:08.535Z,101324.03
2023-04-15T15:03:13.889Z,101313.06
2023-04-15T15:06:18.999Z,101321.06
2023-04-15T15:09:23.909Z,101326.03
2023-04-15T15:12:27.431Z,101318.41
2023-04-15T15:15:31.219Z,101319.63
2023-04-15T15:18:34.824Z,101326.25
2023-04-15T15:21:39.799Z,101324.53
2023-04-15T15:24:43.429Z,101326.84
2023-04-15T15:27:46.965Z,101325.69
2023-04-15T15:30:51.075Z,101338.66
2023-04-15T15:33:54.597Z,101338.09
2023-04-15T15:36:59.656Z,101340.97
2023-04-15T15:40:05.118Z,101341.94
2023-04-15T15:43:08.771Z,101358.63
2023-04-15T15:46:12.394Z,101351.75
2023-04-15T15:49:16.464Z,101360.22
2023-04-15T15:52:21.466Z,101364.97
2023-04-15T15:55:27.286Z,101367.59
2023-04-15T15:58:31.314Z,101380.94
2023-04-15T16:01:34.942Z,101376.91
2023-04-15T16:04:39.071Z,101382.25
2023-04-15T16:07:44.108Z,101389.59
2023-04-15T16:10:47.877Z,101391.25
2023-04-15T16:13:51.364Z,101399.09
2023-04-15T16:16:55.135Z,101406.16
2023-04-15T16:20:00.906Z,101403.78
2023-04-15T16:23:13.457Z,101405.63
2023-04-15T16:26:17.081Z,101401.50
2023-04-15T16:29:20.724Z,101401.59
2023-04-15T16:32:38.648Z,101403.50
2023-04-15T16:35:42.397Z,101412.31
2023-04-15T16:38:48.811Z,101422.91
2023-04-15T16:41:52.580Z,101419.38
2023-04-15T16:44:56.668Z,101429.28
2023-04-15T16:48:00.391Z,101429.50
2023-04-15T16:51:04.062Z,101435.75
2023-04-15T16:54:10.080Z,101441.09
2023-04-15T16:57:13.786Z,101443.91
2023-04-15T17:00:17.961Z,101447.53
2023-04-15T17:03:21.828Z,101447.63
2023-04-15T17:06:26.571Z,101453.72
2023-04-15T17:09:32.042Z,101461.72
2023-04-15T17:12:36.267Z,101464.41
2023-04-15T17:15:50.760Z,101469.75
2023-04-15T17:18:55.320Z,101466.31
2023-04-15T17:21:59.317Z,101469.75
2023-04-15T17:25:05.388Z,101459.34
2023-04-15T17:28:09.112Z,101478.63
2023-04-15T17:31:12.912Z,101480.56
2023-04-15T17:34:23.756Z,101486.56
2023-04-15T17:37:27.981Z,101487.50
2023-04-15T17:40:33.301Z,101489.53
2023-04-15T17:43:36.854Z,101499.09
2023-04-15T17:46:40.539Z,101496.75
2023-04-15T17:49:45.101Z,101504.66
2023-04-15T17:52:48.602Z,101501.31
2023-04-15T17:55:53.859Z,101507.59
2023-04-15T17:58:59.235Z,101520.72
2023-04-15T18:02:02.885Z,101519.09
2023-04-15T18:05:07.752Z,101528.84
2023-04-15T18:08:11.512Z,101535.00
2023-04-15T18:11:17.633Z,101537.69
2023-04-15T18:14:33.597Z,101542.19
2023-04-15T18:17:38.659Z,101541.41
2023-04-15T18:20:42.182Z,101539.66
2023-04-15T18:23:46.119Z,101545.00
2023-04-15T18:26:51.222Z,101553.75
2023-04-15T18:29:54.798Z,101558.34
2023-04-15T18:32:58.439Z,101563.63
2023-04-15T18:36:02.639Z,101578.53
2023-04-15T18:39:06.962Z,101576.94
2023-04-15T18:42:12.009Z,101583.88
2023-04-15T18:45:16.357Z,101584.63
2023-04-15T18:48:20.130Z,101597.16
2023-04-15T18:51:23.956Z,101608.44
2023-04-15T18:54:27.532Z,101610.34
2023-04-15T18:57:35.451Z,101618.16
2023-04-15T19:00:41.834Z,101618.25
2023-04-15T19:03:46.156Z,101626.06
2023-04-15T19:06:50.113Z,101630.53
2023-04-15T19:09:54.864Z,101627.91
2023-04-15T19:13:01.173Z,101637.38
2023-04-15T19:16:05.103Z,101634.06
2023-04-15T19:19:14.764Z,101641.94
2023-04-15T19:22:19.822Z,101637.72
2023-04-15T19:25:29.378Z,101652.59
2023-04-15T19:28:34.302Z,101655.28
2023-04-15T19:31:38.893Z,101666.72
2023-04-15T19:34:42.559Z,101671.16
2023-04-15T19:37:46.303Z,101667.75
2023-04-15T19:40:49.793Z,101678.28
2023-04-15T19:43:54.785Z,101685.31
2023-04-15T19:46:59.069Z,101690.66
2023-04-15T19:50:02.941Z,101689.75
2023-04-15T19:53:06.465Z,101693.28
2023-04-15T19:56:09.974Z,101694.25
2023-04-15T19:59:14.952Z,101694.28
2023-04-15T20:02:18.596Z,101692.63
2023-04-15T20:05:22.614Z,101695.16
2023-04-15T20:08:27.546Z,101700.47
2023-04-15T20:12:44.910Z,101697.84
2023-04-15T20:14:58.217Z,101697.03
2023-04-15T20:18:02.211Z,101692.75
2023-04-15T20:21:05.987Z,101686.69
2023-04-15T20:24:09.913Z,101693.72
2023-04-15T20:27:13.407Z,101698.16
2023-04-15T20:30:18.354Z,101701.66
2023-04-15T20:33:23.034Z,101702.63
2023-04-15T20:36:33.360Z,101714.88
2023-04-15T20:39:42.189Z,101709.63
2023-04-15T20:42:45.721Z,101707.03
2023-04-15T20:45:54.168Z,101703.53
2023-04-15T20:48:57.962Z,101709.69
2023-04-15T20:52:01.478Z,101713.25
2023-04-15T20:55:05.699Z,101711.53
2023-04-15T20:58:09.228Z,101716.03
2023-04-15T21:01:14.229Z,101728.28
2023-04-15T21:04:17.793Z,101730.00
2023-04-15T21:07:21.459Z,101736.19
2023-04-15T21:10:25.303Z,101736.31
2023-04-15T21:13:28.876Z,101736.41
2023-04-15T21:16:34.110Z,101732.97
2023-04-15T21:19:38.827Z,101743.50
2023-04-15T21:22:42.622Z,101744.47
2023-04-15T21:25:46.128Z,101745.50
2023-04-15T21:28:49.697Z,101751.72
2023-04-15T21:31:54.703Z,101754.53
2023-04-15T21:34:58.311Z,101757.31
2023-04-15T21:38:01.911Z,101768.75
2023-04-15T21:41:09.548Z,101768.84
2023-04-15T21:44:14.863Z,101777.75
2023-04-15T21:47:20.350Z,101781.28
2023-04-15T21:50:25.398Z,101784.00
2023-04-15T21:53:29.303Z,101790.13
2023-04-15T21:56:33.984Z,101789.28
2023-04-15T21:59:37.578Z,101805.91
2023-04-15T22:02:42.800Z,101804.19
2023-04-15T22:05:48.440Z,101803.31
2023-04-15T22:08:57.117Z,101805.94
2023-04-15T22:12:01.164Z,101811.22
2023-04-15T22:15:05.632Z,101813.88
2023-04-15T22:18:10.543Z,101818.28
2023-04-15T22:21:14.683Z,101818.28
2023-04-15T22:24:38.807Z,101832.22
2023-04-15T22:27:41.833Z,101830.47
2023-04-15T22:30:45.603Z,101827.94
2023-04-15T22:33:50.706Z,101827.91
2023-04-15T22:36:54.380Z,101820.06
2023-04-15T22:39:58.446Z,101828.81
2023-04-15T22:43:02.088Z,101832.31
2023-04-15T22:46:05.834Z,101836.72
2023-04-15T22:49:11.408Z,101838.47
2023-04-15T22:52:29.373Z,101842.84
2023-04-15T22:55:33.914Z,101848.06
2023-04-15T22:58:37.414Z,101847.28
2023-04-15T23:01:40.980Z,101848.19
2023-04-15T23:04:46.413Z,101855.19
2023-04-15T23:07:49.990Z,101855.22
2023-04-15T23:10:53.579Z,101852.63
2023-04-15T23:13:57.073Z,101852.69
2023-04-15T23:17:01.023Z,101853.63
2023-04-15T23:20:06.983Z,101852.75
2023-04-15T23:23:10.494Z,101858.91
2023-04-15T23:26:14.162Z,101863.31
2023-04-15T23:29:17.750Z,101862.53
2023-04-15T23:32:21.222Z,101872.16
2023-04-15T23:35:27.336Z,101871.28
2023-04-15T23:38:30.865Z,101874.81
2023-04-15T23:41:34.481Z,101879.22
2023-04-15T23:44:38.334Z,101883.59
2023-04-15T23:47:42.123Z,101883.63
2023-04-15T23:50:47.166Z,101887.13
2023-04-15T23:53:52.393Z,101898.44
2023-04-15T23:56:56.120Z,101892.38
